createdAt,value
2022-11-14T00:01:15.666Z,84.42
2022-11-14T00:03:43.489Z,84.29
2022-11-14T00:06:11.332Z,84.60
2022-11-14T00:08:39.118Z,84.74
2022-11-14T00:11:09.584Z,84.05
2022-11-14T00:13:38.759Z,84.45
2022-11-14T00:16:06.725Z,84.83
2022-11-14T00:18:34.573Z,84.81
2022-11-14T00:21:02.502Z,84.49
2022-11-14T00:23:30.319Z,84.29
2022-11-14T00:25:58.816Z,84.06
2022-11-14T00:28:26.735Z,84.54
2022-11-14T00:30:56.085Z,84.89
2022-11-14T00:33:24.121Z,84.19
2022-11-14T00:35:54.206Z,83.77
2022-11-14T00:38:22.229Z,83.93
2022-11-14T00:40:52.719Z,85.41
2022-11-14T00:43:20.691Z,84.49
2022-11-14T00:45:49.037Z,84.76
2022-11-14T00:48:18.418Z,84.88
2022-11-14T00:50:46.586Z,84.33
2022-11-14T00:53:14.738Z,84.87
2022-11-14T00:55:43.663Z,85.51
2022-11-14T00:58:11.572Z,85.93
2022-11-14T01:00:39.998Z,85.43
2022-11-14T01:03:07.986Z,86.05
2022-11-14T01:05:42.251Z,85.80
2022-11-14T01:08:10.384Z,85.43
2022-11-14T01:10:41.103Z,85.14
2022-11-14T01:13:09.480Z,85.39
2022-11-14T01:15:41.164Z,85.13
2022-11-14T01:18:09.261Z,85.33
2022-11-14T01:20:39.876Z,84.88
2022-11-14T01:23:08.095Z,85.70
2022-11-14T01:25:36.199Z,85.67
2022-11-14T01:28:07.445Z,85.17
2022-11-14T01:30:35.275Z,85.62
2022-11-14T01:33:03.730Z,85.52
2022-11-14T01:35:32.592Z,85.78
2022-11-14T01:38:02.379Z,85.42
2022-11-14T01:40:30.934Z,86.21
2022-11-14T01:43:27.738Z,85.85
2022-11-14T01:46:01.729Z,85.69
2022-11-14T01:48:36.544Z,85.40
2022-11-14T01:51:15.411Z,85.46
2022-11-14T01:53:45.645Z,86.22
2022-11-14T01:56:18.155Z,85.71
2022-11-14T01:58:51.136Z,85.52
2022-11-14T02:01:19.100Z,84.76
2022-11-14T02:03:51.160Z,85.76
2022-11-14T02:06:24.281Z,85.29
2022-11-14T02:08:53.879Z,85.28
2022-11-14T02:11:21.843Z,85.12
2022-11-14T02:13:49.929Z,86.10
2022-11-14T02:16:17.750Z,86.18
2022-11-14T02:18:45.586Z,86.00
2022-11-14T02:21:14.799Z,85.84
2022-11-14T02:23:42.680Z,86.21
2022-11-14T02:26:10.538Z,85.82
2022-11-14T02:28:38.604Z,85.77
2022-11-14T02:31:06.466Z,85.27
2022-11-14T02:33:34.286Z,85.96
2022-11-14T02:36:02.236Z,86.36
2022-11-14T02:38:32.179Z,86.34
2022-11-14T02:41:01.305Z,86.49
2022-11-14T02:43:29.203Z,85.64
2022-11-14T02:46:00.274Z,86.45
2022-11-14T02:48:32.333Z,86.38
2022-11-14T02:51:00.758Z,86.24
2022-11-14T02:53:28.509Z,85.65
2022-11-14T02:55:57.769Z,85.97
2022-11-14T02:58:25.590Z,85.82
2022-11-14T03:01:19.129Z,86.44
2022-11-14T03:03:41.421Z,85.82
2022-11-14T03:06:09.368Z,86.26
2022-11-14T03:08:37.245Z,85.22
2022-11-14T03:11:07.628Z,86.35
2022-11-14T03:13:35.690Z,86.23
2022-11-14T03:16:07.392Z,85.27
2022-11-14T03:18:35.877Z,86.01
2022-11-14T03:21:07.707Z,85.81
2022-11-14T03:23:35.703Z,86.23
2022-11-14T03:26:03.951Z,86.37
2022-11-14T03:28:33.317Z,85.47
2022-11-14T03:31:01.243Z,85.68
2022-11-14T03:33:29.402Z,85.25
2022-11-14T03:35:57.205Z,85.40
2022-11-14T03:38:25.977Z,85.65
2022-11-14T03:40:54.298Z,85.22
2022-11-14T03:43:22.970Z,85.27
2022-11-14T03:45:52.423Z,84.91
2022-11-14T03:48:20.215Z,85.28
2022-11-14T03:50:48.204Z,85.14
2022-11-14T03:53:16.064Z,84.92
2022-11-14T03:55:44.671Z,85.17
2022-11-14T03:58:12.570Z,85.08
2022-11-14T04:00:40.518Z,85.39
2022-11-14T04:03:09.886Z,85.66
2022-11-14T04:05:37.829Z,85.41
2022-11-14T04:08:06.689Z,85.59
2022-11-14T04:10:34.649Z,85.66
2022-11-14T04:13:02.537Z,85.81
2022-11-14T04:15:30.326Z,85.33
2022-11-14T04:17:58.380Z,85.88
2022-11-14T04:20:28.088Z,85.72
2022-11-14T04:22:55.845Z,85.71
2022-11-14T04:25:23.752Z,85.25
2022-11-14T04:27:51.615Z,84.95
2022-11-14T04:30:19.537Z,85.37
2022-11-14T04:32:48.491Z,85.45
2022-11-14T04:35:16.586Z,84.97
2022-11-14T04:37:45.878Z,85.26
2022-11-14T04:40:13.959Z,85.60
2022-11-14T04:42:41.722Z,86.11
2022-11-14T04:45:10.326Z,85.75
2022-11-14T04:47:40.104Z,85.98
2022-11-14T04:50:09.199Z,86.01
2022-11-14T04:52:37.108Z,85.97
2022-11-14T04:55:06.909Z,85.68
2022-11-14T04:57:34.752Z,85.89
2022-11-14T05:00:02.794Z,85.79
2022-11-14T05:02:32.248Z,86.10
2022-11-14T05:05:00.053Z,86.43
2022-11-14T05:07:27.881Z,86.03
2022-11-14T05:09:55.959Z,85.83
2022-11-14T05:12:25.158Z,86.87
2022-11-14T05:14:52.953Z,85.88
2022-11-14T05:17:21.033Z,86.11
2022-11-14T05:19:48.923Z,86.42
2022-11-14T05:22:16.937Z,86.51
2022-11-14T05:24:44.764Z,86.25
2022-11-14T05:27:12.827Z,86.35
2022-11-14T05:29:42.125Z,86.63
2022-11-14T05:32:15.081Z,86.10
2022-11-14T05:34:44.003Z,86.46
2022-11-14T05:37:11.852Z,86.23
2022-11-14T05:39:39.735Z,86.45
2022-11-14T05:42:07.625Z,86.49
2022-11-14T05:44:35.499Z,86.75
2022-11-14T05:47:04.722Z,86.13
2022-11-14T05:49:32.535Z,86.21
2022-11-14T05:52:00.328Z,86.14
2022-11-14T05:54:28.382Z,86.49
2022-11-14T05:56:56.191Z,86.56
2022-11-14T05:59:24.485Z,87.09
2022-11-14T06:01:52.402Z,86.82
2022-11-14T06:04:21.708Z,86.92
2022-11-14T06:06:49.605Z,87.02
2022-11-14T06:09:17.715Z,86.44
2022-11-14T06:11:45.564Z,86.63
2022-11-14T06:14:13.398Z,86.45
2022-11-14T06:16:41.228Z,86.59
2022-11-14T06:19:09.165Z,86.18
2022-11-14T06:21:38.370Z,86.33
2022-11-14T06:24:07.127Z,86.24
2022-11-14T06:26:35.176Z,85.98
2022-11-14T06:29:03.086Z,86.76
2022-11-14T06:31:31.264Z,86.58
2022-11-14T06:33:59.068Z,86.56
2022-11-14T06:36:27.022Z,86.14
2022-11-14T06:38:56.213Z,86.19
2022-11-14T06:41:24.646Z,86.37
2022-11-14T06:43:54.925Z,86.64
2022-11-14T06:46:23.929Z,86.40
2022-11-14T06:48:52.507Z,86.05
2022-11-14T06:51:20.831Z,86.62
2022-11-14T06:53:48.905Z,86.43
2022-11-14T06:56:20.234Z,86.26
2022-11-14T06:58:50.138Z,86.80
2022-11-14T07:01:20.171Z,86.29
2022-11-14T07:03:48.701Z,86.04
2022-11-14T07:06:19.089Z,86.29
2022-11-14T07:08:47.302Z,86.57
2022-11-14T07:11:22.922Z,86.51
2022-11-14T07:13:52.936Z,86.11
2022-11-14T07:16:21.290Z,86.36
2022-11-14T07:18:49.280Z,86.03
2022-11-14T07:21:17.239Z,86.41
2022-11-14T07:23:45.020Z,85.93
2022-11-14T07:26:13.523Z,86.10
2022-11-14T07:28:42.959Z,86.47
2022-11-14T07:31:14.466Z,86.43
2022-11-14T07:33:43.667Z,86.43
2022-11-14T07:36:12.250Z,86.91
2022-11-14T07:38:41.022Z,86.38
2022-11-14T07:41:10.841Z,86.22
2022-11-14T07:43:38.959Z,86.48
2022-11-14T07:46:09.004Z,86.30
2022-11-14T07:48:38.204Z,86.76
2022-11-14T07:51:08.381Z,86.42
2022-11-14T07:53:36.692Z,87.02
2022-11-14T07:56:06.748Z,86.55
2022-11-14T07:58:36.163Z,85.96
2022-11-14T08:01:05.264Z,86.41
2022-11-14T08:03:33.480Z,87.05
2022-11-14T08:06:03.952Z,86.87
2022-11-14T08:08:32.592Z,86.94
2022-11-14T08:11:01.382Z,87.73
2022-11-14T08:13:32.026Z,87.61
2022-11-14T08:16:01.157Z,88.25
2022-11-14T08:18:29.312Z,88.30
2022-11-14T08:20:57.662Z,88.38
2022-11-14T08:23:26.893Z,89.17
2022-11-14T08:25:54.944Z,89.24
2022-11-14T08:28:22.783Z,89.49
2022-11-14T08:30:50.637Z,90.29
2022-11-14T08:33:18.480Z,90.87
2022-11-14T08:35:46.462Z,90.79
2022-11-14T08:38:14.454Z,91.78
2022-11-14T08:40:45.296Z,93.15
2022-11-14T08:43:13.255Z,93.06
2022-11-14T08:45:41.125Z,93.06
2022-11-14T08:48:09.095Z,92.12
2022-11-14T08:50:36.959Z,93.30
2022-11-14T08:53:04.809Z,93.88
2022-11-14T08:55:32.658Z,94.23
2022-11-14T08:58:01.897Z,94.07
2022-11-14T09:00:29.977Z,94.76
2022-11-14T09:02:57.890Z,95.77
2022-11-14T09:05:27.102Z,93.91
2022-11-14T09:07:55.144Z,94.23
2022-11-14T09:10:24.983Z,94.13
2022-11-14T09:12:56.815Z,94.27
2022-11-14T09:15:26.320Z,94.40
2022-11-14T09:17:54.553Z,93.67
2022-11-14T09:20:28.273Z,93.18
2022-11-14T09:23:00.097Z,93.79
2022-11-14T09:25:30.134Z,93.49
2022-11-14T09:27:58.836Z,93.20
2022-11-14T09:30:28.114Z,93.25
2022-11-14T09:33:00.982Z,93.63
2022-11-14T09:35:32.077Z,93.53
2022-11-14T09:38:03.059Z,93.29
2022-11-14T09:40:32.532Z,93.01
2022-11-14T09:43:14.514Z,92.66
2022-11-14T09:45:49.815Z,93.21
2022-11-14T09:48:21.293Z,92.55
2022-11-14T09:51:01.443Z,92.42
2022-11-14T09:53:34.260Z,93.18
2022-11-14T09:56:02.773Z,92.86
2022-11-14T09:58:39.671Z,93.50
2022-11-14T10:01:17.631Z,92.74
2022-11-14T10:03:54.318Z,93.08
2022-11-14T10:06:31.157Z,92.27
2022-11-14T10:09:19.293Z,92.79
2022-11-14T10:11:54.987Z,92.04
2022-11-14T10:14:47.796Z,92.16
2022-11-14T10:17:35.563Z,92.06
2022-11-14T10:20:15.258Z,91.96
2022-11-14T10:23:03.585Z,92.05
2022-11-14T10:25:44.266Z,91.81
2022-11-14T10:28:33.807Z,92.06
2022-11-14T10:31:08.488Z,92.20
2022-11-14T10:33:51.092Z,91.29
2022-11-14T10:36:27.705Z,90.72
2022-11-14T10:39:03.829Z,91.04
2022-11-14T10:41:55.913Z,90.85
2022-11-14T10:44:29.630Z,91.23
2022-11-14T10:47:03.032Z,91.08
2022-11-14T10:49:39.607Z,91.61
2022-11-14T10:52:14.217Z,90.69
2022-11-14T10:54:47.135Z,91.46
2022-11-14T10:57:18.324Z,91.27
2022-11-14T10:59:47.512Z,91.81
2022-11-14T11:02:16.159Z,91.08
2022-11-14T11:04:47.109Z,91.64
2022-11-14T11:07:42.557Z,90.39
2022-11-14T11:10:39.181Z,90.90
2022-11-14T11:13:09.738Z,90.63
2022-11-14T11:15:42.389Z,91.03
2022-11-14T11:18:27.276Z,90.75
2022-11-14T11:21:09.183Z,90.16
2022-11-14T11:23:38.487Z,89.81
2022-11-14T11:26:09.587Z,90.13
2022-11-14T11:28:38.629Z,89.68
2022-11-14T11:31:08.449Z,89.91
2022-11-14T11:33:37.687Z,90.10
2022-11-14T11:36:13.286Z,90.15
2022-11-14T11:38:42.340Z,89.99
2022-11-14T11:41:52.707Z,89.31
2022-11-14T11:44:14.074Z,89.49
2022-11-14T11:46:48.347Z,89.54
2022-11-14T11:49:20.597Z,89.14
2022-11-14T11:51:56.923Z,88.98
2022-11-14T11:54:31.287Z,89.75
2022-11-14T11:57:03.427Z,89.21
2022-11-14T11:59:36.511Z,88.74
2022-11-14T12:02:18.421Z,88.92
2022-11-14T12:04:46.551Z,89.20
2022-11-14T12:07:20.340Z,87.64
2022-11-14T12:10:09.899Z,88.55
2022-11-14T12:13:04.200Z,88.16
2022-11-14T12:15:43.686Z,87.79
2022-11-14T12:18:24.460Z,88.40
2022-11-14T12:21:06.247Z,87.84
2022-11-14T12:23:57.899Z,87.07
2022-11-14T12:26:42.089Z,87.58
2022-11-14T12:29:32.671Z,87.00
2022-11-14T12:32:07.089Z,87.20
2022-11-14T12:34:41.783Z,87.87
2022-11-14T12:37:15.700Z,87.36
2022-11-14T12:39:57.746Z,86.37
2022-11-14T12:42:27.145Z,86.73
2022-11-14T12:44:55.004Z,87.02
2022-11-14T12:47:24.784Z,87.38
2022-11-14T12:50:27.052Z,86.63
2022-11-14T12:52:55.151Z,87.05
2022-11-14T12:56:05.207Z,86.12
2022-11-14T12:58:48.921Z,86.65
2022-11-14T13:01:51.662Z,86.18
2022-11-14T13:04:29.962Z,85.62
2022-11-14T13:07:15.083Z,85.55
2022-11-14T13:10:05.164Z,84.88
2022-11-14T13:12:53.566Z,85.90
2022-11-14T13:15:49.714Z,85.64
2022-11-14T13:18:42.580Z,85.81
2022-11-14T13:21:45.129Z,85.61
2022-11-14T13:24:16.254Z,85.38
2022-11-14T13:26:51.941Z,85.92
2022-11-14T13:30:00.090Z,85.87
2022-11-14T13:33:07.769Z,85.47
2022-11-14T13:35:48.604Z,86.08
2022-11-14T13:39:01.099Z,85.22
2022-11-14T13:42:15.946Z,84.96
2022-11-14T13:45:44.177Z,84.55
2022-11-14T13:48:51.845Z,85.30
2022-11-14T13:54:17.412Z,85.55
2022-11-14T13:57:10.145Z,85.72
2022-11-14T13:59:53.903Z,84.95
2022-11-14T14:02:44.092Z,85.24
2022-11-14T14:05:22.476Z,85.48
2022-11-14T14:08:04.977Z,85.72
2022-11-14T14:10:41.588Z,85.77
2022-11-14T14:13:22.308Z,85.78
2022-11-14T14:16:04.133Z,85.65
2022-11-14T14:18:46.972Z,85.13
2022-11-14T14:21:28.200Z,85.46
2022-11-14T14:24:08.098Z,85.53
2022-11-14T14:26:55.461Z,85.47
2022-11-14T14:29:28.788Z,85.62
2022-11-14T14:32:08.460Z,85.08
2022-11-14T14:34:36.841Z,85.45
2022-11-14T14:37:05.341Z,85.27
2022-11-14T14:39:34.918Z,85.31
2022-11-14T14:42:03.626Z,85.64
2022-11-14T14:44:38.290Z,85.31
2022-11-14T14:47:16.246Z,85.26
2022-11-14T14:49:45.125Z,85.36
2022-11-14T14:52:23.571Z,85.33
2022-11-14T14:54:57.384Z,85.13
2022-11-14T14:57:25.972Z,85.57
2022-11-14T15:00:00.585Z,85.15
2022-11-14T15:02:29.944Z,85.42
2022-11-14T15:05:00.660Z,85.75
2022-11-14T15:07:30.638Z,85.27
2022-11-14T15:10:02.279Z,85.53
2022-11-14T15:12:32.170Z,85.32
2022-11-14T15:15:02.697Z,85.07
2022-11-14T15:17:35.684Z,85.19
2022-11-14T15:20:04.688Z,84.92
2022-11-14T15:22:33.691Z,85.09
2022-11-14T15:25:23.923Z,84.63
2022-11-14T15:27:54.626Z,84.71
2022-11-14T15:30:25.404Z,85.26
2022-11-14T15:32:55.010Z,85.26
2022-11-14T15:35:29.395Z,85.27
2022-11-14T15:38:36.673Z,84.78
2022-11-14T15:41:21.629Z,85.02
2022-11-14T15:43:53.147Z,84.60
2022-11-14T15:46:38.866Z,84.66
2022-11-14T15:49:12.174Z,84.66
2022-11-14T15:51:43.657Z,85.12
2022-11-14T15:54:23.927Z,85.06
2022-11-14T15:56:54.058Z,84.99
2022-11-14T15:59:22.156Z,85.21
2022-11-14T16:01:53.730Z,84.45
2022-11-14T16:04:24.331Z,85.14
2022-11-14T16:06:52.241Z,84.56
2022-11-14T16:09:22.195Z,84.68
2022-11-14T16:11:50.291Z,85.18
2022-11-14T16:14:19.531Z,85.12
2022-11-14T16:16:47.414Z,85.17
2022-11-14T16:19:17.406Z,85.45
2022-11-14T16:21:45.762Z,85.00
2022-11-14T16:24:17.938Z,85.31
2022-11-14T16:26:46.308Z,85.53
2022-11-14T16:29:15.130Z,85.52
2022-11-14T16:31:45.332Z,85.28
2022-11-14T16:34:19.348Z,85.51
2022-11-14T16:36:48.670Z,85.27
2022-11-14T16:39:16.796Z,85.87
2022-11-14T16:41:44.826Z,85.70
2022-11-14T16:44:17.785Z,85.15
2022-11-14T16:46:47.590Z,85.63
2022-11-14T16:49:17.324Z,85.31
2022-11-14T16:51:49.839Z,85.21
2022-11-14T16:54:18.482Z,85.38
2022-11-14T16:56:46.380Z,85.35
2022-11-14T16:59:14.884Z,85.55
2022-11-14T17:01:43.249Z,85.19
2022-11-14T17:04:13.091Z,85.48
2022-11-14T17:06:40.961Z,85.38
2022-11-14T17:09:09.074Z,85.79
2022-11-14T17:11:36.884Z,85.51
2022-11-14T17:14:04.946Z,85.85
2022-11-14T17:16:33.102Z,85.91
2022-11-14T17:19:01.418Z,85.52
2022-11-14T17:21:30.785Z,85.51
2022-11-14T17:24:01.417Z,85.68
2022-11-14T17:26:29.571Z,85.75
2022-11-14T17:28:57.416Z,85.97
2022-11-14T17:31:25.267Z,86.15
2022-11-14T17:33:54.618Z,85.68
2022-11-14T17:36:23.238Z,85.83
2022-11-14T17:38:52.741Z,85.75
2022-11-14T17:41:20.942Z,85.66
2022-11-14T17:43:52.838Z,85.25
2022-11-14T17:46:21.078Z,85.57
2022-11-14T17:48:49.058Z,85.49
2022-11-14T17:51:17.777Z,85.84
2022-11-14T17:53:45.577Z,85.62
2022-11-14T17:56:17.795Z,85.96
2022-11-14T17:58:46.818Z,85.75
2022-11-14T18:01:17.026Z,86.43
2022-11-14T18:03:44.994Z,86.19
2022-11-14T18:06:14.674Z,85.95
2022-11-14T18:08:42.846Z,86.40
2022-11-14T18:11:12.984Z,86.63
2022-11-14T18:13:42.498Z,86.50
2022-11-14T18:16:13.536Z,86.30
2022-11-14T18:18:42.861Z,86.45
2022-11-14T18:21:12.016Z,86.42
2022-11-14T18:23:39.915Z,86.35
2022-11-14T18:26:11.982Z,86.10
2022-11-14T18:28:40.107Z,86.46
2022-11-14T18:31:11.017Z,86.70
2022-11-14T18:33:39.425Z,86.71
2022-11-14T18:36:10.318Z,86.97
2022-11-14T18:38:38.436Z,86.89
2022-11-14T18:41:10.014Z,87.07
2022-11-14T18:43:37.860Z,86.97
2022-11-14T18:46:07.665Z,86.67
2022-11-14T18:48:38.273Z,87.59
2022-11-14T18:51:07.941Z,87.27
2022-11-14T18:53:37.046Z,87.60
2022-11-14T18:56:05.900Z,87.44
2022-11-14T18:58:35.987Z,87.46
2022-11-14T19:01:10.923Z,87.73
2022-11-14T19:03:40.316Z,87.11
2022-11-14T19:06:09.909Z,87.05
2022-11-14T19:08:38.022Z,87.44
2022-11-14T19:11:08.085Z,87.21
2022-11-14T19:13:36.208Z,86.76
2022-11-14T19:16:04.707Z,86.69
2022-11-14T19:18:33.844Z,87.04
2022-11-14T19:21:06.649Z,86.91
2022-11-14T19:23:34.778Z,86.69
2022-11-14T19:26:03.475Z,87.27
2022-11-14T19:28:31.465Z,87.12
2022-11-14T19:31:03.052Z,87.06
2022-11-14T19:33:31.650Z,86.85
2022-11-14T19:36:05.314Z,86.38
2022-11-14T19:38:34.503Z,86.91
2022-11-14T19:41:07.931Z,86.55
2022-11-14T19:43:35.894Z,86.90
2022-11-14T19:46:04.594Z,86.86
2022-11-14T19:48:32.920Z,86.27
2022-11-14T19:51:05.407Z,86.32
2022-11-14T19:53:37.088Z,86.75
2022-11-14T19:56:07.555Z,86.47
2022-11-14T19:58:37.603Z,86.72
2022-11-14T20:01:07.964Z,86.09
2022-11-14T20:03:36.984Z,86.26
2022-11-14T20:06:05.942Z,86.34
2022-11-14T20:08:36.990Z,85.88
2022-11-14T20:11:06.789Z,86.13
2022-11-14T20:13:36.811Z,86.36
2022-11-14T20:16:09.804Z,85.92
2022-11-14T20:18:37.801Z,87.34
2022-11-14T20:21:06.470Z,87.19
2022-11-14T20:23:36.557Z,86.90
2022-11-14T20:26:09.943Z,87.10
2022-11-14T20:28:39.475Z,86.91
2022-11-14T20:31:10.812Z,86.70
2022-11-14T20:33:41.496Z,86.75
2022-11-14T20:36:13.432Z,86.50
2022-11-14T20:38:44.403Z,87.04
2022-11-14T20:41:13.065Z,86.62
2022-11-14T20:43:41.860Z,86.92
2022-11-14T20:46:13.611Z,86.37
2022-11-14T20:48:42.746Z,86.72
2022-11-14T20:51:14.127Z,86.87
2022-11-14T20:53:44.247Z,86.94
2022-11-14T20:56:13.727Z,87.38
2022-11-14T20:58:42.352Z,87.43
2022-11-14T21:01:11.085Z,87.55
2022-11-14T21:03:39.384Z,88.01
2022-11-14T21:06:08.384Z,87.63
2022-11-14T21:08:37.779Z,87.94
2022-11-14T21:11:09.313Z,87.77
2022-11-14T21:13:55.882Z,88.28
2022-11-14T21:16:26.049Z,87.92
2022-11-14T21:18:54.853Z,88.16
2022-11-14T21:21:25.000Z,88.54
2022-11-14T21:23:53.205Z,88.17
2022-11-14T21:26:24.558Z,88.61
2022-11-14T21:28:55.186Z,88.34
2022-11-14T21:31:24.960Z,88.50
2022-11-14T21:33:56.580Z,87.91
2022-11-14T21:39:15.248Z,88.37
2022-11-14T21:41:46.053Z,88.53
2022-11-14T21:44:16.559Z,88.28
2022-11-14T21:46:47.121Z,88.91
2022-11-14T21:49:15.596Z,88.72
2022-11-14T21:51:43.496Z,88.22
2022-11-14T21:54:11.627Z,88.62
2022-11-14T21:56:39.596Z,88.16
2022-11-14T21:59:15.534Z,88.48
2022-11-14T22:02:02.648Z,89.00
2022-11-14T22:04:31.330Z,89.00
2022-11-14T22:06:59.872Z,88.19
2022-11-14T22:09:28.531Z,88.52
2022-11-14T22:11:56.840Z,88.80
2022-11-14T22:14:26.453Z,88.41
2022-11-14T22:16:54.285Z,88.44
2022-11-14T22:19:22.176Z,88.84
2022-11-14T22:21:49.938Z,88.33
2022-11-14T22:24:17.931Z,88.88
2022-11-14T22:26:45.795Z,88.73
2022-11-14T22:29:13.822Z,88.73
2022-11-14T22:31:43.027Z,88.95
2022-11-14T22:34:12.455Z,89.02
2022-11-14T22:36:40.310Z,89.12
2022-11-14T22:39:08.616Z,89.12
2022-11-14T22:41:36.732Z,89.03
2022-11-14T22:44:04.525Z,89.19
2022-11-14T22:46:32.306Z,89.13
2022-11-14T22:49:03.948Z,89.91
2022-11-14T22:51:31.898Z,89.53
2022-11-14T22:54:00.359Z,89.37
2022-11-14T22:56:30.447Z,89.18
2022-11-14T22:59:00.649Z,89.81
2022-11-14T23:01:31.162Z,89.14
2022-11-14T23:04:02.056Z,89.76
2022-11-14T23:06:31.545Z,89.34
2022-11-14T23:08:59.864Z,89.88
2022-11-14T23:11:29.116Z,89.90
2022-11-14T23:13:59.264Z,89.99
2022-11-14T23:16:28.897Z,89.71
2022-11-14T23:18:59.010Z,89.66
2022-11-14T23:21:30.451Z,90.14
2022-11-14T23:23:59.783Z,90.36
2022-11-14T23:26:28.953Z,90.63
2022-11-14T23:28:57.231Z,90.58
2022-11-14T23:31:25.963Z,90.88
2022-11-14T23:33:55.160Z,90.92
2022-11-14T23:36:23.463Z,91.38
2022-11-14T23:38:54.480Z,91.45
2022-11-14T23:41:25.508Z,92.61
2022-11-14T23:43:53.944Z,92.35
2022-11-14T23:46:21.785Z,92.12
2022-11-14T23:48:50.822Z,91.82
2022-11-14T23:51:18.789Z,92.12
2022-11-14T23:53:46.872Z,92.05
2022-11-14T23:56:16.327Z,92.46
2022-11-14T23:58:44.190Z,92.64
